Time;durP1;ratioP1;P1;durP2;ratioP2;P2;SDS_P1;SDS_P2;PMS_P1;PMS_P2;Temp;Humidity;BMP_temperature;BMP_pressure;BME280_temperature;BME280_humidity;BME280_pressure;Samples;Min_cycle;Max_cycle;Signal;HPM_P1;HPM_P2
2022/05/31 00:01:56;;;;;;;2.30;1.67;;;;;;;10.94;92.02;101047.53;5055525;28;20456;-72
2022/05/31 00:04:23;;;;;;;1.90;1.27;;;;;;;10.95;92.79;101046.44;5055498;28;20442;-72
2022/05/31 00:06:49;;;;;;;2.20;1.60;;;;;;;11.00;93.42;101054.50;5055393;28;20449;-72
2022/05/31 00:09:16;;;;;;;2.80;1.57;;;;;;;10.96;94.63;101051.56;5054293;28;20450;-72
2022/05/31 00:11:43;;;;;;;2.70;1.63;;;;;;;11.00;94.17;101046.34;5055389;28;20434;-72
2022/05/31 00:14:13;;;;;;;3.37;1.90;;;;;;;11.03;93.76;101049.28;5055277;28;20438;-72
2022/05/31 00:16:40;;;;;;;1.33;1.10;;;;;;;11.05;93.84;101049.78;5054881;28;20904;-72
2022/05/31 00:19:07;;;;;;;3.33;1.60;;;;;;;11.05;93.85;101044.38;5054709;28;20840;-73
2022/05/31 00:21:40;;;;;;;1.70;1.10;;;;;;;11.07;94.21;101038.69;5054798;28;20994;-73
2022/05/31 00:24:09;;;;;;;1.33;1.03;;;;;;;11.12;93.86;101038.59;5054981;28;20930;-73
2022/05/31 00:26:39;;;;;;;2.07;1.27;;;;;;;11.09;94.50;101044.59;5055043;28;20495;-73
2022/05/31 00:29:05;;;;;;;2.77;1.57;;;;;;;11.16;94.53;101045.06;5054921;28;20545;-72
2022/05/31 00:31:33;;;;;;;2.20;1.40;;;;;;;11.16;94.68;101045.06;5054930;28;20453;-71
2022/05/31 00:34:00;;;;;;;2.43;1.73;;;;;;;11.20;94.48;101042.53;5054936;28;20446;-71
2022/05/31 00:36:27;;;;;;;2.20;1.33;;;;;;;11.22;94.61;101046.56;5054851;28;20445;-71
2022/05/31 00:38:55;;;;;;;2.10;1.20;;;;;;;11.24;93.98;101048.97;5054642;28;20488;-72
2022/05/31 00:41:25;;;;;;;2.70;1.40;;;;;;;11.13;92.13;101048.34;5054799;28;20446;-71
2022/05/31 00:43:52;;;;;;;4.63;1.73;;;;;;;11.09;92.05;101053.53;5054714;28;20441;-71
2022/05/31 00:46:22;;;;;;;1.43;1.17;;;;;;;11.06;91.74;101054.13;5054680;28;20446;-72
2022/05/31 00:48:56;;;;;;;2.40;1.77;;;;;;;11.01;91.60;101051.47;5054601;28;20481;-71
2022/05/31 00:51:35;;;;;;;1.90;1.00;;;;;;;10.99;92.27;101042.84;5054356;28;20943;-71
2022/05/31 00:54:04;;;;;;;7.20;1.50;;;;;;;10.96;91.87;101056.16;5054597;28;20465;-71
2022/05/31 00:56:32;;;;;;;1.93;1.17;;;;;;;11.02;91.40;101052.28;5054519;28;20445;-71
2022/05/31 00:59:01;;;;;;;2.50;1.90;;;;;;;11.00;92.36;101049.88;5054258;28;20482;-71
2022/05/31 01:01:31;;;;;;;1.50;1.20;;;;;;;11.00;93.42;101044.44;5054377;28;20426;-71
2022/05/31 01:03:59;;;;;;;2.80;1.40;;;;;;;11.00;94.22;101052.59;5054516;28;20792;-73
2022/05/31 01:06:25;;;;;;;2.17;1.30;;;;;;;11.06;94.53;101043.28;5054322;28;20485;-71
2022/05/31 01:08:55;;;;;;;1.87;1.00;;;;;;;11.09;94.40;101050.81;5054368;28;20461;-73
2022/05/31 01:11:24;;;;;;;1.50;1.20;;;;;;;11.11;94.52;101055.94;5054190;28;20789;-72
2022/05/31 01:13:51;;;;;;;6.90;1.60;;;;;;;11.10;94.68;101048.91;5054109;28;20449;-71
2022/05/31 01:16:17;;;;;;;6.63;1.27;;;;;;;11.15;94.83;101051.56;5054110;28;20449;-72
2022/05/31 01:18:43;;;;;;;1.83;1.20;;;;;;;11.20;94.95;101053.38;5053615;28;20930;-73
2022/05/31 01:21:12;;;;;;;2.37;1.77;;;;;;;11.14;95.56;101047.22;5052654;28;20951;-73
2022/05/31 01:23:43;;;;;;;2.50;1.37;;;;;;;11.16;95.67;101045.06;5053961;28;20435;-72
2022/05/31 01:26:16;;;;;;;1.73;1.23;;;;;;;11.19;95.12;101043.66;5054045;28;20820;-72
2022/05/31 01:29:10;;;;;;;2.10;1.30;;;;;;;11.19;93.28;101040.94;5053859;28;20500;-73
2022/05/31 01:31:42;;;;;;;4.87;1.47;;;;;;;11.08;92.70;101041.09;5054161;28;20422;-73
2022/05/31 01:34:13;;;;;;;1.57;1.13;;;;;;;11.01;92.92;101040.63;5053916;28;20798;-73
2022/05/31 01:36:46;;;;;;;1.43;1.10;;;;;;;11.01;92.96;101040.63;5053794;28;20426;-74
2022/05/31 01:39:20;;;;;;;2.13;1.20;;;;;;;11.00;91.77;101046.34;5053566;28;20574;-71
2022/05/31 01:41:54;;;;;;;1.90;1.00;;;;;;;10.92;91.78;101049.72;5053700;28;20454;-71
2022/05/31 01:44:22;;;;;;;1.40;1.17;;;;;;;10.90;92.25;101044.59;5053623;28;20465;-71
2022/05/31 01:46:52;;;;;;;1.30;0.90;;;;;;;10.83;93.59;101039.53;5053545;28;20450;-71
2022/05/31 01:49:19;;;;;;;2.00;1.37;;;;;;;10.80;94.40;101034.72;5053489;28;20461;-71
2022/05/31 01:51:47;;;;;;;1.93;1.13;;;;;;;10.72;95.87;101048.09;5053210;28;20449;-71
2022/05/31 01:54:16;;;;;;;7.37;1.40;;;;;;;10.74;96.21;101038.56;5053507;28;20434;-71
2022/05/31 01:56:46;;;;;;;5.27;1.60;;;;;;;10.80;95.88;101037.41;5053127;28;20821;-71
2022/05/31 01:59:12;;;;;;;1.70;1.20;;;;;;;10.84;95.75;101041.13;5052915;28;21003;-71
2022/05/31 02:01:40;;;;;;;2.13;1.17;;;;;;;10.80;95.86;101039.28;5053405;28;20468;-71
2022/05/31 02:04:08;;;;;;;1.70;1.20;;;;;;;10.73;96.66;101042.38;5053510;28;20482;-70
2022/05/31 02:06:38;;;;;;;5.00;1.50;;;;;;;10.80;96.59;101036.59;5053522;28;20442;-71
2022/05/31 02:09:08;;;;;;;1.67;1.33;;;;;;;10.80;96.27;101034.72;5052860;28;20854;-71
2022/05/31 02:11:35;;;;;;;2.90;1.60;;;;;;;10.81;96.24;101038.22;5053219;28;20438;-71
2022/05/31 02:14:01;;;;;;;2.03;1.43;;;;;;;10.76;96.36;101036.38;5053113;28;20462;-70
2022/05/31 02:16:28;;;;;;;2.57;1.67;;;;;;;10.76;96.70;101033.66;5053187;28;20465;-71
2022/05/31 02:21:39;;;;;;;2.70;1.37;;;;;;;10.74;96.55;101029.63;5053369;28;20453;-71
2022/05/31 02:24:10;;;;;;;1.10;0.80;;;;;;;10.64;95.34;101036.00;5053074;28;20446;-71
2022/05/31 02:26:40;;;;;;;1.90;1.60;;;;;;;10.56;95.21;101033.91;5053093;28;20430;-71
2022/05/31 02:29:08;;;;;;;1.47;1.37;;;;;;;10.52;94.52;101030.97;5052995;28;20564;-71
2022/05/31 02:31:35;;;;;;;1.03;0.93;;;;;;;10.43;94.34;101034.63;5053926;28;20461;-71
2022/05/31 02:34:02;;;;;;;2.07;1.50;;;;;;;10.38;94.88;101035.47;5057121;28;20537;-71
2022/05/31 02:36:29;;;;;;;1.43;1.00;;;;;;;10.31;94.31;101035.00;5057113;28;20443;-71
2022/05/31 02:38:56;;;;;;;3.20;1.77;;;;;;;10.34;95.13;101037.94;5056930;28;20490;-71
2022/05/31 02:41:24;;;;;;;2.50;1.20;;;;;;;10.37;95.91;101047.41;5056903;28;20473;-71
2022/05/31 02:43:50;;;;;;;1.20;0.87;;;;;;;10.38;96.85;101040.91;5056998;28;20446;-71
2022/05/31 02:46:17;;;;;;;2.17;1.57;;;;;;;10.39;97.29;101044.41;5056965;28;20441;-71
2022/05/31 02:48:43;;;;;;;1.50;0.93;;;;;;;10.42;97.14;101044.66;5056795;28;20465;-71
2022/05/31 02:51:10;;;;;;;2.70;1.67;;;;;;;10.44;96.97;101049.75;5056805;28;20820;-71
2022/05/31 02:53:37;;;;;;;1.37;0.90;;;;;;;10.43;97.06;101045.44;5057010;28;20438;-71
2022/05/31 02:56:04;;;;;;;2.03;1.70;;;;;;;10.49;97.16;101041.56;5056738;28;20450;-73
2022/05/31 02:58:31;;;;;;;1.70;0.80;;;;;;;10.49;97.10;101047.00;5056609;28;20490;-73
2022/05/31 03:00:58;;;;;;;1.50;1.10;;;;;;;10.49;96.90;101044.28;5056640;28;20446;-69
2022/05/31 03:03:24;;;;;;;2.60;1.90;;;;;;;10.45;97.53;101051.41;5056623;28;20454;-69
2022/05/31 03:05:51;;;;;;;3.80;1.83;;;;;;;10.48;97.36;101051.59;5056630;28;20529;-74
2022/05/31 03:08:18;;;;;;;1.40;1.00;;;;;;;10.55;97.70;101043.16;5056451;28;20458;-74
2022/05/31 03:10:49;;;;;;;2.10;1.30;;;;;;;10.57;97.56;101049.06;5056520;28;20484;-74
2022/05/31 03:13:21;;;;;;;3.63;1.70;;;;;;;10.60;97.75;101051.22;5056484;28;20788;-74
2022/05/31 03:15:49;;;;;;;6.43;2.00;;;;;;;10.61;97.42;101041.97;5056452;28;20479;-74
2022/05/31 03:18:20;;;;;;;2.80;1.17;;;;;;;10.59;97.21;101044.19;5055856;28;20875;-73
2022/05/31 03:20:50;;;;;;;2.90;1.63;;;;;;;10.52;96.12;101041.00;5056323;28;20434;-73
2022/05/31 03:23:21;;;;;;;3.20;1.40;;;;;;;10.50;95.50;101037.78;5056267;28;20446;-73
2022/05/31 03:25:49;;;;;;;1.27;0.80;;;;;;;10.49;94.98;101041.56;5055900;28;20904;-74
2022/05/31 03:28:18;;;;;;;2.70;1.40;;;;;;;10.50;94.89;101038.59;5055795;28;20983;-73
2022/05/31 03:30:45;;;;;;;1.83;1.10;;;;;;;10.47;95.14;101043.78;5056116;28;20515;-73
2022/05/31 03:33:14;;;;;;;2.63;1.53;;;;;;;10.47;94.91;101047.28;5056089;28;20446;-74
2022/05/31 03:35:41;;;;;;;1.53;1.03;;;;;;;10.42;96.03;101035.72;5056024;28;20438;-74
2022/05/31 03:38:08;;;;;;;1.50;1.10;;;;;;;10.47;96.48;101046.50;5055829;28;20492;-74
2022/05/31 03:40:58;;;;;;;8.10;1.67;;;;;;;10.53;96.36;101039.91;5056646;28;20445;-73
2022/05/31 03:43:27;;;;;;;4.00;1.87;;;;;;;10.54;97.07;101046.97;5054794;28;20438;-74
2022/05/31 03:45:54;;;;;;;3.50;2.30;;;;;;;10.58;97.20;101051.50;5055790;28;20446;-73
2022/05/31 03:48:22;;;;;;;3.63;1.30;;;;;;;10.56;97.65;101050.16;5055449;28;20834;-74
2022/05/31 03:50:58;;;;;;;1.80;1.23;;;;;;;10.57;97.72;101058.00;5055734;28;20446;-74
2022/05/31 03:53:24;;;;;;;2.17;1.50;;;;;;;10.47;98.16;101051.91;5055835;28;20462;-74
2022/05/31 03:55:51;;;;;;;2.57;1.00;;;;;;;10.51;98.22;101056.47;5055628;28;20449;-74
2022/05/31 03:58:17;;;;;;;2.07;1.23;;;;;;;10.59;97.67;101066.66;5055511;28;20490;-74
2022/05/31 04:00:44;;;;;;;1.27;1.00;;;;;;;10.65;97.82;101061.16;5055590;28;20504;-73
2022/05/31 04:03:10;;;;;;;3.23;1.60;;;;;;;10.68;98.19;101063.31;5055496;28;20446;-73
2022/05/31 04:05:38;;;;;;;1.30;1.07;;;;;;;10.71;98.25;101065.41;5055213;28;20445;-73
2022/05/31 04:08:08;;;;;;;5.70;1.10;;;;;;;10.71;98.27;101062.72;5055333;28;20469;-74
2022/05/31 04:10:36;;;;;;;1.43;1.30;;;;;;;10.72;97.61;101064.34;5055117;28;20867;-74
2022/05/31 04:13:03;;;;;;;1.93;1.20;;;;;;;10.71;96.59;101073.56;5055129;28;20873;-74
2022/05/31 04:15:30;;;;;;;3.57;1.27;;;;;;;10.67;96.04;101077.94;5055361;28;20442;-74
2022/05/31 04:17:56;;;;;;;1.90;1.30;;;;;;;10.66;96.30;101073.63;5054877;28;20486;-73
2022/05/31 04:20:23;;;;;;;1.80;1.47;;;;;;;10.66;95.97;101079.03;5055219;28;20450;-72
2022/05/31 04:22:50;;;;;;;3.30;1.43;;;;;;;10.70;95.58;101072.75;5055172;28;20442;-70
2022/05/31 04:25:17;;;;;;;2.43;1.37;;;;;;;10.69;95.24;101073.84;5055074;28;20442;-68
2022/05/31 04:27:43;;;;;;;5.13;1.23;;;;;;;10.74;95.45;101068.38;5055072;28;20496;-68
2022/05/31 04:30:10;;;;;;;1.70;1.20;;;;;;;10.81;96.51;101073.44;5054963;28;20438;-71
2022/05/31 04:32:37;;;;;;;1.80;1.40;;;;;;;10.81;97.72;101081.56;5054949;28;20442;-71
2022/05/31 04:35:04;;;;;;;2.10;1.27;;;;;;;10.90;97.95;101081.75;5054831;28;20450;-71
2022/05/31 04:37:30;;;;;;;3.83;1.17;;;;;;;10.95;98.10;101077.03;5054785;28;20445;-73
2022/05/31 04:39:58;;;;;;;2.93;1.70;;;;;;;11.04;98.26;101072.59;5054702;28;20493;-71
2022/05/31 04:42:25;;;;;;;4.33;1.67;;;;;;;11.13;98.28;101072.75;5054533;28;20956;-71
2022/05/31 04:44:53;;;;;;;2.27;1.53;;;;;;;11.23;98.21;101069.88;5054412;28;20958;-71
2022/05/31 04:47:19;;;;;;;3.00;1.90;;;;;;;11.29;98.32;101076.06;5054696;28;20520;-71
2022/05/31 04:49:45;;;;;;;2.13;1.37;;;;;;;11.40;98.11;101073.97;5054563;28;20473;-71
2022/05/31 04:52:12;;;;;;;1.63;1.10;;;;;;;11.42;97.84;101071.78;5054265;28;20829;-71
2022/05/31 04:54:39;;;;;;;2.30;1.00;;;;;;;11.50;97.16;101076.53;5053947;28;20951;-70
2022/05/31 04:57:07;;;;;;;2.30;1.37;;;;;;;11.52;96.23;101075.16;5054512;28;20442;-70
2022/05/31 04:59:33;;;;;;;2.27;1.27;;;;;;;11.58;95.51;101070.44;5054625;28;20513;-71
2022/05/31 05:01:59;;;;;;;1.40;0.90;;;;;;;11.67;94.46;101079.53;5054321;28;20442;-71
2022/05/31 05:04:26;;;;;;;5.10;1.73;;;;;;;11.75;93.04;101081.56;5054294;28;20445;-72
2022/05/31 05:06:52;;;;;;;2.40;1.37;;;;;;;11.77;91.65;101079.34;5054376;28;20446;-73
2022/05/31 05:09:19;;;;;;;4.27;1.70;;;;;;;11.83;90.98;101078.22;5054197;28;20461;-73
2022/05/31 05:11:46;;;;;;;1.73;1.07;;;;;;;11.87;90.48;101075.72;5054163;28;20446;-72
2022/05/31 05:14:14;;;;;;;4.50;1.23;;;;;;;11.92;90.27;101081.06;5054225;28;20861;-74
2022/05/31 05:16:40;;;;;;;1.73;1.27;;;;;;;11.92;90.07;101075.63;5054134;28;20529;-73
2022/05/31 05:19:07;;;;;;;2.00;1.10;;;;;;;11.98;89.98;101079.03;5053631;28;20493;-73
2022/05/31 05:21:34;;;;;;;5.57;1.27;;;;;;;12.01;89.03;101076.53;5054035;28;20446;-73
2022/05/31 05:24:00;;;;;;;1.40;1.17;;;;;;;12.01;88.47;101068.41;5053957;28;20446;-73
2022/05/31 05:26:27;;;;;;;2.37;1.47;;;;;;;12.07;87.77;101078.06;5053661;28;21105;-73
2022/05/31 05:31:40;;;;;;;4.17;1.53;;;;;;;12.26;88.02;101069.03;5053781;28;20794;-75
2022/05/31 05:34:07;;;;;;;2.23;1.07;;;;;;;12.33;87.20;101075.69;5053648;28;20546;-75
2022/05/31 05:36:34;;;;;;;2.53;1.40;;;;;;;12.40;85.36;101077.22;5053394;28;21031;-75
2022/05/31 05:39:00;;;;;;;2.07;1.00;;;;;;;12.51;83.47;101076.69;5053561;28;20497;-75
2022/05/31 05:41:31;;;;;;;5.60;1.43;;;;;;;12.61;83.41;101075.69;5053634;28;20445;-75
2022/05/31 05:43:57;;;;;;;4.30;1.50;;;;;;;12.66;82.67;101078.31;5053743;28;20438;-75
2022/05/31 05:46:26;;;;;;;5.50;1.20;;;;;;;12.75;81.67;101081.94;5053638;28;20434;-74
2022/05/31 05:48:54;;;;;;;2.07;0.93;;;;;;;12.85;80.28;101075.47;5053513;28;20473;-72
2022/05/31 05:51:23;;;;;;;2.60;0.80;;;;;;;12.95;78.69;101088.06;5053585;28;20438;-72
2022/05/31 05:53:50;;;;;;;1.20;0.87;;;;;;;12.96;77.91;101086.94;5053497;28;20450;-72
2022/05/31 05:56:17;;;;;;;5.20;1.20;;;;;;;12.99;77.90;101086.34;5053102;28;20816;-73
2022/05/31 05:58:44;;;;;;;1.23;0.77;;;;;;;13.09;77.99;101094.28;5053082;28;20486;-74
2022/05/31 06:01:15;;;;;;;3.53;1.20;;;;;;;13.16;78.22;101086.50;5053365;28;20443;-74
2022/05/31 06:03:45;;;;;;;2.60;1.10;;;;;;;13.27;77.27;101089.81;5053379;28;20437;-74
2022/05/31 06:06:15;;;;;;;1.00;0.73;;;;;;;13.34;77.45;101084.78;5052764;28;20474;-74
2022/05/31 06:08:47;;;;;;;0.90;0.70;;;;;;;13.44;76.46;101086.44;5053421;28;20469;-69
2022/05/31 06:11:17;;;;;;;2.33;1.00;;;;;;;13.51;74.59;101093.09;5053277;28;20788;-69
2022/05/31 06:13:49;;;;;;;3.77;1.20;;;;;;;13.59;74.74;101088.81;5053227;28;20446;-71
2022/05/31 06:16:20;;;;;;;3.50;1.10;;;;;;;13.59;72.28;101088.81;5053277;28;20509;-74
2022/05/31 06:18:52;;;;;;;1.17;0.80;;;;;;;13.66;72.96;101094.63;5052818;28;20535;-75
2022/05/31 06:21:22;;;;;;;1.10;0.70;;;;;;;13.71;71.00;101099.16;5053265;28;20800;-77
2022/05/31 06:23:49;;;;;;;1.97;0.90;;;;;;;13.71;69.89;101099.16;5052848;28;20999;-75
2022/05/31 06:26:17;;;;;;;1.70;1.27;;;;;;;13.70;71.65;101095.63;5053115;28;20469;-73
2022/05/31 06:28:43;;;;;;;1.80;1.20;;;;;;;13.77;70.59;101100.66;5052983;28;20494;-74
2022/05/31 06:31:10;;;;;;;1.73;0.97;;;;;;;13.78;69.80;101102.25;5052725;28;20935;-74
2022/05/31 06:33:37;;;;;;;1.47;0.70;;;;;;;13.69;70.41;101099.47;5053142;28;20438;-74
2022/05/31 06:36:04;;;;;;;3.70;0.60;;;;;;;13.76;70.96;101099.81;5052800;28;20438;-74
2022/05/31 06:38:33;;;;;;;1.20;0.70;;;;;;;13.92;70.25;101097.53;5052977;28;20466;-74
2022/05/31 06:40:59;;;;;;;4.80;0.83;;;;;;;14.04;70.62;101099.72;5052872;28;20437;-74
2022/05/31 06:43:25;;;;;;;1.40;0.70;;;;;;;14.14;69.66;101094.78;5052838;28;20438;-74
2022/05/31 06:45:52;;;;;;;1.10;0.90;;;;;;;14.23;69.43;101100.28;5052614;28;20948;-71
2022/05/31 06:48:18;;;;;;;3.03;1.17;;;;;;;14.26;68.68;101105.13;5052464;28;20467;-71
2022/05/31 06:50:45;;;;;;;1.00;0.70;;;;;;;14.30;67.33;101100.66;5052441;28;20786;-71
2022/05/31 06:58:43;;;;;;;0.80;0.60;;;;;;;14.33;67.71;101101.94;5052440;28;20445;-71
2022/05/31 07:01:09;;;;;;;1.00;0.83;;;;;;;14.36;67.41;101107.56;5052595;28;20442;-72
2022/05/31 07:03:36;;;;;;;2.40;0.80;;;;;;;14.45;64.37;101106.81;5052824;28;20477;-71
2022/05/31 07:06:03;;;;;;;1.47;0.80;;;;;;;14.53;64.41;101108.78;5052641;28;20446;-70
2022/05/31 07:08:30;;;;;;;1.43;0.80;;;;;;;14.61;65.46;101102.56;5052575;28;20549;-72
2022/05/31 07:10:58;;;;;;;1.57;0.90;;;;;;;14.70;67.87;101086.22;5052597;28;20442;-71
2022/05/31 07:13:25;;;;;;;2.60;1.27;;;;;;;14.81;65.61;101087.53;5052684;28;20465;-71
2022/05/31 07:15:52;;;;;;;1.13;0.83;;;;;;;14.91;65.21;101084.50;5052324;28;20443;-71
2022/05/31 07:18:19;;;;;;;1.43;0.77;;;;;;;15.00;66.42;101087.25;5054197;28;20518;-71
2022/05/31 07:20:45;;;;;;;2.70;1.50;;;;;;;15.05;64.33;101095.28;5056251;28;20482;-71
2022/05/31 07:23:12;;;;;;;1.70;0.97;;;;;;;15.06;67.52;101091.47;5056193;28;20529;-71
2022/05/31 07:25:39;;;;;;;2.93;0.83;;;;;;;15.20;67.37;101086.66;5056090;28;20958;-71
2022/05/31 07:28:07;;;;;;;1.10;0.90;;;;;;;15.34;64.35;101094.69;5056128;28;20909;-71
2022/05/31 07:30:34;;;;;;;2.03;1.03;;;;;;;15.39;61.97;101094.53;5056126;28;20529;-71
2022/05/31 07:33:01;;;;;;;1.23;0.87;;;;;;;15.49;62.97;101094.19;5056088;28;20515;-72
2022/05/31 07:35:29;;;;;;;1.30;0.83;;;;;;;15.57;61.34;101087.94;5055855;28;20437;-72
2022/05/31 07:37:55;;;;;;;1.73;0.80;;;;;;;15.60;60.01;101097.41;5056067;28;20476;-71
2022/05/31 07:40:22;;;;;;;2.23;1.20;;;;;;;15.51;61.23;101091.97;5056004;28;20485;-71
2022/05/31 07:42:49;;;;;;;1.03;0.57;;;;;;;15.44;63.53;101091.63;5055648;28;20482;-72
2022/05/31 07:45:17;;;;;;;0.90;0.73;;;;;;;15.29;60.23;101084.72;5056019;28;20475;-72
2022/05/31 07:47:44;;;;;;;1.40;0.90;;;;;;;15.20;60.80;101083.94;5055797;28;20473;-71
2022/05/31 07:50:11;;;;;;;1.90;1.10;;;;;;;15.14;60.85;101083.28;5055787;28;20813;-72
2022/05/31 07:52:38;;;;;;;2.17;0.77;;;;;;;15.13;62.56;101083.59;5055723;28;20465;-72
2022/05/31 07:55:05;;;;;;;1.10;0.70;;;;;;;15.15;60.92;101084.09;5055597;28;20438;-70
2022/05/31 08:00:17;;;;;;;2.20;0.97;;;;;;;15.28;60.49;101080.41;5055434;28;20564;-72
2022/05/31 08:02:44;;;;;;;1.83;1.00;;;;;;;15.32;60.10;101075.13;5055477;28;20496;-71
2022/05/31 08:05:10;;;;;;;0.90;0.53;;;;;;;15.43;62.21;101072.84;5055176;28;20472;-72
2022/05/31 08:07:37;;;;;;;2.37;1.00;;;;;;;15.54;62.09;101069.47;5055420;28;20442;-72
2022/05/31 08:10:04;;;;;;;2.10;1.17;;;;;;;15.66;59.89;101078.97;5055302;28;20492;-72
2022/05/31 08:12:30;;;;;;;1.23;0.83;;;;;;;15.73;59.81;101071.09;5055338;28;20516;-71
2022/05/31 08:14:56;;;;;;;2.30;1.07;;;;;;;15.83;59.79;101070.75;5055207;28;20434;-72
2022/05/31 08:17:24;;;;;;;6.60;1.13;;;;;;;15.67;62.57;101072.38;5055198;28;20485;-72
2022/05/31 08:19:50;;;;;;;3.97;0.90;;;;;;;15.83;61.33;101063.34;5054624;28;20501;-72
2022/05/31 08:22:17;;;;;;;2.07;0.90;;;;;;;15.97;61.92;101063.16;5054783;28;20458;-72
2022/05/31 08:24:43;;;;;;;1.63;1.00;;;;;;;16.14;58.41;101067.78;5055049;28;20470;-71
2022/05/31 08:27:10;;;;;;;1.17;0.83;;;;;;;16.18;57.05;101065.19;5054708;28;20492;-71
2022/05/31 08:29:36;;;;;;;1.33;0.93;;;;;;;16.20;55.71;101062.94;5054368;28;20466;-71
2022/05/31 08:32:03;;;;;;;2.20;1.47;;;;;;;16.25;56.17;101070.97;5054885;28;20438;-71
2022/05/31 08:34:30;;;;;;;1.43;0.87;;;;;;;16.21;56.95;101070.81;5055100;28;20458;-71
2022/05/31 08:36:57;;;;;;;2.50;1.23;;;;;;;16.15;55.51;101070.19;5054594;28;20939;-72
2022/05/31 08:39:23;;;;;;;2.27;1.10;;;;;;;16.20;56.46;101066.47;5054610;28;20465;-72
2022/05/31 08:41:52;;;;;;;1.00;0.67;;;;;;;16.26;57.39;101056.16;5054781;28;20449;-72
2022/05/31 08:44:45;;;;;;;6.73;1.47;;;;;;;16.45;59.42;101064.75;5054774;28;20647;-72
2022/05/31 08:47:19;;;;;;;1.07;0.77;;;;;;;16.62;58.37;101059.22;5051619;28;20466;-71
2022/05/31 08:52:57;;;;;;;1.10;0.73;;;;;;;16.94;51.53;101067.91;5054870;28;20959;-71
2022/05/31 08:58:17;;;;;;;2.47;0.97;;;;;;;16.72;52.21;101041.63;5054176;28;20525;-71
2022/05/31 09:00:48;;;;;;;2.07;1.03;;;;;;;16.55;51.28;101052.63;5054445;28;20880;-71
2022/05/31 09:03:19;;;;;;;1.23;0.80;;;;;;;16.57;50.43;101048.47;5054450;28;20440;-72
2022/05/31 09:05:53;;;;;;;1.63;0.90;;;;;;;16.57;51.95;101051.19;5054310;28;20900;-71
2022/05/31 09:08:25;;;;;;;3.80;0.80;;;;;;;16.62;51.42;101052.94;5053878;28;20882;-71
2022/05/31 09:11:01;;;;;;;2.70;1.33;;;;;;;16.63;51.06;101051.81;5053898;28;21042;-71
2022/05/31 09:13:35;;;;;;;6.73;1.10;;;;;;;16.49;51.37;101053.97;5054266;28;20803;-71
2022/05/31 09:16:10;;;;;;;0.70;0.50;;;;;;;16.52;52.63;101054.13;5054147;28;20805;-72
2022/05/31 09:18:43;;;;;;;1.00;0.80;;;;;;;16.67;53.03;101049.22;5054082;28;20478;-72
2022/05/31 09:21:20;;;;;;;1.33;1.17;;;;;;;16.76;52.06;101042.59;5053783;28;21025;-72
2022/05/31 09:23:46;;;;;;;1.20;0.70;;;;;;;17.10;53.55;101041.53;5054158;28;20414;-71
2022/05/31 09:26:38;;;;;;;3.63;1.07;;;;;;;17.39;52.78;101037.91;5053796;28;20446;-72
2022/05/31 09:29:13;;;;;;;3.23;0.90;;;;;;;17.69;52.46;101035.06;5053866;28;20520;-71
2022/05/31 09:31:49;;;;;;;1.30;0.80;;;;;;;17.88;52.44;101045.53;5053800;28;20497;-72
2022/05/31 09:34:31;;;;;;;7.43;1.17;;;;;;;18.05;51.07;101036.31;5053733;28;20437;-72
2022/05/31 09:37:08;;;;;;;1.87;1.17;;;;;;;18.18;51.54;101024.22;5053789;28;20450;-72
2022/05/31 09:39:40;;;;;;;2.00;1.13;;;;;;;18.35;47.81;101029.47;5053645;28;20832;-72
2022/05/31 09:42:15;;;;;;;3.40;0.87;;;;;;;18.53;49.17;101029.25;5052821;28;20430;-72
2022/05/31 09:44:44;;;;;;;1.10;0.77;;;;;;;18.54;47.80;101031.66;5053721;28;20450;-72
2022/05/31 09:47:23;;;;;;;0.90;0.50;;;;;;;18.50;46.66;101024.44;5053643;28;20449;-72
2022/05/31 09:49:51;;;;;;;3.00;0.77;;;;;;;18.23;45.61;101021.25;5053266;28;21018;-72
2022/05/31 09:52:30;;;;;;;2.23;1.00;;;;;;;18.19;46.55;101023.06;5053767;28;20442;-72
2022/05/31 09:58:16;;;;;;;0.80;0.60;;;;;;;18.12;48.06;101017.38;5053451;28;20521;-72
2022/05/31 10:01:00;;;;;;;4.17;0.73;;;;;;;18.40;47.75;101014.75;5053108;28;20980;-72
2022/05/31 10:03:34;;;;;;;1.10;0.70;;;;;;;18.64;46.12;101013.94;5053586;28;20426;-72
2022/05/31 10:06:07;;;;;;;1.60;0.90;;;;;;;18.77;46.57;101006.50;5053357;28;20446;-72
2022/05/31 10:08:35;;;;;;;1.10;0.80;;;;;;;18.70;45.98;101017.28;5053293;28;20477;-71
2022/05/31 10:11:06;;;;;;;1.33;0.57;;;;;;;18.63;45.72;101009.56;5053353;28;20442;-72
2022/05/31 10:13:35;;;;;;;3.27;0.90;;;;;;;18.57;45.04;101008.22;5053326;28;20437;-70
2022/05/31 10:16:17;;;;;;;4.60;1.17;;;;;;;18.56;46.16;101009.38;5053217;28;20474;-70
2022/05/31 10:18:55;;;;;;;3.20;1.27;;;;;;;18.48;46.24;101002.06;5052896;28;20485;-69
2022/05/31 10:21:30;;;;;;;0.90;0.60;;;;;;;18.47;44.81;101000.47;5053042;28;20482;-72
2022/05/31 10:24:01;;;;;;;3.70;0.73;;;;;;;18.31;46.36;100994.84;5053375;28;20438;-73
2022/05/31 10:26:31;;;;;;;8.03;1.00;;;;;;;18.14;45.41;100995.88;5053265;28;20466;-72
2022/05/31 10:29:00;;;;;;;0.80;0.57;;;;;;;18.08;47.93;100991.78;5052985;28;20513;-72
2022/05/31 10:31:33;;;;;;;1.90;0.97;;;;;;;18.11;47.58;100993.84;5052820;28;20993;-73
2022/05/31 10:34:02;;;;;;;2.30;0.70;;;;;;;18.26;47.40;100982.19;5053171;28;20477;-71
2022/05/31 10:36:30;;;;;;;0.90;0.60;;;;;;;18.52;47.77;100989.25;5053140;28;20818;-72
2022/05/31 10:39:09;;;;;;;3.87;1.03;;;;;;;18.66;46.37;100975.97;5052921;28;20493;-72
2022/05/31 10:41:36;;;;;;;2.20;1.10;;;;;;;18.84;45.76;100976.53;5052907;28;20556;-73
2022/05/31 10:44:09;;;;;;;1.40;0.80;;;;;;;18.85;45.93;100969.88;5053585;28;20450;-73
2022/05/31 10:46:38;;;;;;;1.60;0.93;;;;;;;18.66;44.56;100974.00;5053290;28;20439;-73
2022/05/31 10:49:17;;;;;;;3.20;1.10;;;;;;;18.67;46.63;100974.81;5052799;28;20473;-72
2022/05/31 10:51:53;;;;;;;4.93;0.70;;;;;;;18.62;46.01;100967.63;5052895;28;20458;-72
2022/05/31 10:54:35;;;;;;;1.23;0.90;;;;;;;18.64;47.88;100965.34;5056957;28;20426;-72
2022/05/31 10:57:15;;;;;;;2.73;1.17;;;;;;;18.57;47.79;100967.84;5056806;28;20446;-72
2022/05/31 10:59:46;;;;;;;1.07;0.60;;;;;;;18.51;47.82;100961.03;5056674;28;20853;-73
2022/05/31 11:02:42;;;;;;;3.63;0.73;;;;;;;18.59;44.90;100959.28;5056673;28;20492;-71
2022/05/31 11:05:10;;;;;;;1.00;0.60;;;;;;;18.63;45.11;100954.69;5056611;28;20453;-74
2022/05/31 11:11:28;;;;;;;1.03;0.60;;;;;;;18.72;45.55;100955.38;5055839;28;20446;-74
2022/05/31 11:13:39;;;;;;;0.83;0.70;;;;;;;19.08;45.00;100954.50;5055502;28;20465;-73
2022/05/31 11:16:15;;;;;;;1.17;1.00;;;;;;;19.28;45.00;100949.91;5055785;28;20434;-74
2022/05/31 11:19:04;;;;;;;1.17;0.80;;;;;;;19.23;44.99;100947.44;5055358;28;20520;-74
2022/05/31 11:21:43;;;;;;;1.43;0.97;;;;;;;19.24;44.51;100949.03;5055582;28;20551;-74
2022/05/31 11:24:23;;;;;;;1.17;0.63;;;;;;;19.47;43.97;100951.19;5055504;28;20488;-74
2022/05/31 11:27:04;;;;;;;1.10;0.60;;;;;;;20.07;42.96;100939.00;5056806;28;20479;-78
2022/05/31 11:29:51;;;;;;;0.80;0.60;;;;;;;20.78;42.28;100947.28;5055660;28;20910;-73
2022/05/31 11:32:25;;;;;;;2.53;0.63;;;;;;;21.40;40.65;100950.91;5055749;28;20480;-74
2022/05/31 11:35:03;;;;;;;1.23;0.90;;;;;;;22.13;38.89;100938.78;5055536;28;20430;-74
2022/05/31 11:37:42;;;;;;;1.53;0.77;;;;;;;22.67;39.35;100943.09;5055365;28;20462;-74
2022/05/31 11:40:23;;;;;;;1.47;1.00;;;;;;;23.23;39.32;100940.63;5055368;28;20430;-72
2022/05/31 11:43:24;;;;;;;1.97;0.90;;;;;;;23.63;36.96;100937.06;5055509;28;20430;-73
2022/05/31 11:46:00;;;;;;;1.10;0.90;;;;;;;22.84;36.63;100938.97;5055687;28;20465;-75
2022/05/31 11:48:52;;;;;;;1.77;0.73;;;;;;;22.29;38.05;100927.56;5055309;28;20469;-69
2022/05/31 11:51:37;;;;;;;1.50;0.90;;;;;;;22.48;38.18;100925.84;5055381;28;20423;-69
2022/05/31 11:54:22;;;;;;;1.20;0.87;;;;;;;22.41;37.37;100929.34;5054918;28;20809;-73
2022/05/31 11:57:02;;;;;;;1.10;0.80;;;;;;;21.92;36.20;100928.19;5055211;28;20434;-74
2022/05/31 11:59:35;;;;;;;1.60;0.70;;;;;;;21.81;38.40;100929.97;5054803;28;20458;-73
2022/05/31 12:02:10;;;;;;;2.43;0.73;;;;;;;22.07;37.34;100931.16;5054904;28;20485;-74
2022/05/31 12:04:43;;;;;;;2.67;0.90;;;;;;;22.47;37.85;100924.28;5054069;28;20422;-73